Kirsten H — WY7979 — position and weather

sailwx.info

Track history (hours):
 
Tides and Currents Weather Stations Pressure Air Temp Water Temp Dewpoint Dewpoint Depression Visibility Wind Speed Wind Dir Waves Ship Positions

Kirsten H

Owner: BOYER TOWING, KETCHIKAN, AK. More information available from US FCC via Universal Licensing System and Coast Guard Vessel Documentation Center.

Last reported at 2016-Nov-29 13:33 UTC. Time now 2016-Dec-03 17:46 UTC.
Position N 47°34' W 122°21'.

Length 22 m; draft 3.7 m.

Type: Tow > 200 m length. MMSI: 366623050.

Date/timePositionNaut miles runAvg speedWind from/ knotsBaromVisibWave heightAir tempDewpointWater temp
2016-Nov-29 13:33N 47°34' W 122°21'8 8.2
2016-Nov-29 12:33N 47°36' W 122°33'6 5.6
2016-Nov-29 11:33N 47°32' W 122°40'2 1.5
2016-Nov-29 10:33N 47°33' W 122°38'6 5.5
2016-Nov-29 09:33N 47°34' W 122°30'8 8.1
2016-Nov-29 08:33N 47°42' W 122°28'9 8.7
2016-Nov-29 07:33N 47°51' W 122°29'8 7.9
2016-Nov-29 06:32N 47°58' W 122°35'32 6.5
2016-Nov-29 01:33N 48°24' W 123°03'9 8.8
2016-Nov-29 00:33N 48°31' W 123°11'10 9.6
2016-Nov-28 23:33N 48°40' W 123°15'8 7.4
2016-Nov-28 22:32N 48°45' W 123°07'32 7.9
2016-Nov-28 18:32N 49°10' W 123°36'19 0.9
2016-Nov-27 22:23N 49°18' W 124°02'3 3.6
2016-Nov-27 21:31N 49°19' W 124°07'6 5.8
2016-Nov-27 20:33N 49°22' W 124°14'7 6.7
2016-Nov-27 19:30N 49°26' W 124°23'14 7.4
2016-Nov-27 17:33N 49°37' W 124°38'145 4.8
2016-Nov-26 11:33N 51°04' W 127°40'12 5.4
2016-Nov-26 09:19N 51°13' W 127°52'  
Track history (hours):
 
Tides and Currents Weather Stations Pressure Air Temp Water Temp Dewpoint Dewpoint Depression Visibility Wind Speed Wind Dir Waves Ship Positions

Kirsten H

Owner: BOYER TOWING, KETCHIKAN, AK. More information available from US FCC via Universal Licensing System and Coast Guard Vessel Documentation Center.

Last reported at 2016-Nov-29 13:33 UTC. Time now 2016-Dec-03 17:46 UTC.
Position N 47°34' W 122°21'.

Length 22 m; draft 3.7 m.

Type: Tow > 200 m length. MMSI: 366623050.

Date/timePositionNaut miles runAvg speedWind from/ knotsBaromVisibWave heightAir tempDewpointWater temp
2016-Nov-29 13:33N 47°34' W 122°21'8 8.2
2016-Nov-29 12:33N 47°36' W 122°33'6 5.6
2016-Nov-29 11:33N 47°32' W 122°40'2 1.5
2016-Nov-29 10:33N 47°33' W 122°38'6 5.5
2016-Nov-29 09:33N 47°34' W 122°30'8 8.1
2016-Nov-29 08:33N 47°42' W 122°28'9 8.7
2016-Nov-29 07:33N 47°51' W 122°29'8 7.9
2016-Nov-29 06:32N 47°58' W 122°35'32 6.5
2016-Nov-29 01:33N 48°24' W 123°03'9 8.8
2016-Nov-29 00:33N 48°31' W 123°11'10 9.6
2016-Nov-28 23:33N 48°40' W 123°15'8 7.4
2016-Nov-28 22:32N 48°45' W 123°07'32 7.9
2016-Nov-28 18:32N 49°10' W 123°36'19 0.9
2016-Nov-27 22:23N 49°18' W 124°02'3 3.6
2016-Nov-27 21:31N 49°19' W 124°07'6 5.8
2016-Nov-27 20:33N 49°22' W 124°14'7 6.7
2016-Nov-27 19:30N 49°26' W 124°23'14 7.4
2016-Nov-27 17:33N 49°37' W 124°38'145 4.8
2016-Nov-26 11:33N 51°04' W 127°40'12 5.4
2016-Nov-26 09:19N 51°13' W 127°52'  

Dump ship's entire track history